createdAt,value
2022-10-19T00:01:16.912Z,100.00
2022-10-19T00:11:21.149Z,100.00
2022-10-19T00:21:28.360Z,100.00
2022-10-19T00:31:30.468Z,100.00
2022-10-19T00:41:37.735Z,100.00
2022-10-19T00:51:46.508Z,100.00
2022-10-19T01:01:49.285Z,100.00
2022-10-19T01:12:11.432Z,100.00
2022-10-19T01:22:50.998Z,100.00
2022-10-19T01:33:20.600Z,100.00
2022-10-19T01:43:31.238Z,100.00
2022-10-19T01:53:39.163Z,100.00
2022-10-19T02:03:43.923Z,100.00
2022-10-19T02:13:49.824Z,100.00
2022-10-19T02:23:54.181Z,100.00
2022-10-19T02:33:58.758Z,100.00
2022-10-19T02:44:04.960Z,100.00
2022-10-19T02:54:11.076Z,100.00
2022-10-19T03:04:13.139Z,100.00
2022-10-19T03:14:20.113Z,100.00
2022-10-19T03:24:27.848Z,100.00
2022-10-19T03:34:30.254Z,100.00
2022-10-19T03:44:33.363Z,100.00
2022-10-19T03:54:40.180Z,100.00
2022-10-19T04:04:44.189Z,100.00
2022-10-19T04:14:57.301Z,100.00
2022-10-19T04:25:02.034Z,100.00
2022-10-19T04:35:09.965Z,100.00
2022-10-19T04:45:12.037Z,100.00
2022-10-19T04:55:19.385Z,100.00
2022-10-19T05:05:27.514Z,100.00
2022-10-19T05:15:30.170Z,100.00
2022-10-19T05:25:34.756Z,100.00
2022-10-19T05:35:36.864Z,100.00
2022-10-19T05:45:41.258Z,100.00
2022-10-19T05:55:44.423Z,100.00
2022-10-19T06:05:54.634Z,100.00
2022-10-19T06:15:57.465Z,100.00
2022-10-19T06:26:11.044Z,100.00
2022-10-19T06:36:27.156Z,100.00
2022-10-19T06:46:32.449Z,100.00
2022-10-19T06:56:35.285Z,100.00
2022-10-19T07:06:37.352Z,100.00
2022-10-19T07:16:40.653Z,100.00
2022-10-19T07:26:50.589Z,100.00
2022-10-19T07:36:58.371Z,100.00
2022-10-19T07:47:12.404Z,100.00
2022-10-19T07:57:17.232Z,100.00
2022-10-19T08:07:21.680Z,100.00
2022-10-19T08:17:26.970Z,100.00
2022-10-19T08:27:30.473Z,100.00
2022-10-19T08:37:44.272Z,100.00
2022-10-19T08:48:01.522Z,100.00
2022-10-19T08:58:27.896Z,100.00
2022-10-19T09:08:31.008Z,100.00
2022-10-19T09:18:34.994Z,100.00
2022-10-19T09:28:56.418Z,100.00
2022-10-19T09:38:58.470Z,100.00
2022-10-19T09:49:01.965Z,100.00
2022-10-19T09:59:04.158Z,100.00
2022-10-19T10:09:25.192Z,100.00
2022-10-19T10:19:29.476Z,100.00
2022-10-19T10:29:36.516Z,100.00
2022-10-19T10:39:43.535Z,100.00
2022-10-19T10:49:54.159Z,100.00
2022-10-19T11:00:02.169Z,100.00
2022-10-19T11:10:17.263Z,100.00
2022-10-19T11:20:19.409Z,100.00
2022-10-19T11:30:25.104Z,100.00
2022-10-19T11:40:42.748Z,100.00
2022-10-19T11:51:24.174Z,100.00
2022-10-19T12:01:35.799Z,99.02
2022-10-19T12:11:59.223Z,94.41
2022-10-19T12:22:08.963Z,92.25
2022-10-19T12:32:14.413Z,94.31
2022-10-19T12:42:25.091Z,88.22
2022-10-19T12:52:44.869Z,88.52
2022-10-19T13:02:58.667Z,77.54
2022-10-19T13:13:03.309Z,77.90
2022-10-19T13:23:05.456Z,76.56
2022-10-19T13:33:29.856Z,66.80
2022-10-19T13:43:51.639Z,80.85
2022-10-19T13:54:01.277Z,85.23
2022-10-19T14:04:22.095Z,90.54
2022-10-19T14:14:24.851Z,86.80
2022-10-19T14:24:35.384Z,100.00
2022-10-19T14:34:45.902Z,100.00
2022-10-19T14:44:49.608Z,100.00
2022-10-19T14:54:55.951Z,100.00
2022-10-19T15:05:02.026Z,99.65
2022-10-19T15:15:16.763Z,90.38
2022-10-19T15:25:37.005Z,87.61
2022-10-19T15:35:46.343Z,84.06
2022-10-19T15:45:58.961Z,80.85
2022-10-19T16:06:11.881Z,82.58
2022-10-19T16:16:25.599Z,82.61
2022-10-19T16:26:29.393Z,83.34
2022-10-19T16:36:38.837Z,86.73
2022-10-19T16:46:47.745Z,90.89
2022-10-19T16:56:49.851Z,89.88
2022-10-19T17:07:00.333Z,91.26
2022-10-19T17:17:05.461Z,92.92
2022-10-19T17:27:08.789Z,93.57
2022-10-19T17:37:11.293Z,95.78
2022-10-19T17:47:17.386Z,94.77
2022-10-19T17:57:21.733Z,95.77
2022-10-19T18:07:25.847Z,99.88
2022-10-19T18:17:31.494Z,99.00
2022-10-19T18:27:35.981Z,99.54
2022-10-19T18:37:40.667Z,100.00
2022-10-19T18:47:46.334Z,100.00
2022-10-19T18:57:48.470Z,100.00
2022-10-19T19:07:50.888Z,100.00
2022-10-19T19:17:55.386Z,100.00
2022-10-19T19:28:04.618Z,100.00
2022-10-19T19:38:12.050Z,100.00
2022-10-19T19:48:14.147Z,100.00
2022-10-19T19:58:16.835Z,100.00
2022-10-19T20:08:25.426Z,100.00
2022-10-19T20:18:34.327Z,100.00
2022-10-19T20:28:41.106Z,100.00
2022-10-19T20:39:01.331Z,100.00
2022-10-19T20:49:14.356Z,100.00
2022-10-19T20:59:21.279Z,100.00
2022-10-19T21:09:28.189Z,100.00
2022-10-19T21:19:31.057Z,100.00
2022-10-19T21:29:37.374Z,100.00
2022-10-19T21:39:39.828Z,100.00
2022-10-19T21:49:47.464Z,100.00
2022-10-19T21:59:53.198Z,100.00
2022-10-19T22:10:03.717Z,100.00
2022-10-19T22:20:09.818Z,100.00
2022-10-19T22:30:14.322Z,100.00
2022-10-19T22:40:18.586Z,100.00
2022-10-19T22:50:22.838Z,100.00
2022-10-19T23:00:30.110Z,100.00
2022-10-19T23:10:34.657Z,100.00
2022-10-19T23:20:42.031Z,100.00
2022-10-19T23:30:50.491Z,100.00
2022-10-19T23:40:52.554Z,100.00
2022-10-19T23:51:06.906Z,100.00
